Time;durP1;ratioP1;P1;durP2;ratioP2;P2;SDS_P1;SDS_P2;PMS_P1;PMS_P2;Temp;Humidity;BMP_temperature;BMP_pressure;BME280_temperature;BME280_humidity;BME280_pressure;Samples;Min_cycle;Max_cycle;Signal;HPM_P1;HPM_P2
2022/08/15 00:01:23;;;;;;;6.78;6.18;;;23.40;85.10;;;;;;4378218;28;10000352;-72
2022/08/15 00:03:53;;;;;;;6.82;6.10;;;23.40;85.60;;;;;;5079007;28;20656;-72
2022/08/15 00:06:22;;;;;;;6.97;6.38;;;23.40;85.60;;;;;;5088124;28;20089;-72
2022/08/15 00:08:52;;;;;;;6.65;6.05;;;23.30;85.80;;;;;;5085366;28;20032;-72
2022/08/15 00:11:22;;;;;;;6.93;5.90;;;23.30;85.80;;;;;;5077236;28;20043;-72
2022/08/15 00:13:53;;;;;;;6.93;6.22;;;23.20;86.00;;;;;;5087873;28;20054;-72
2022/08/15 00:16:18;;;;;;;6.97;6.28;;;23.10;86.10;;;;;;5083256;28;20020;-72
2022/08/15 00:18:45;;;;;;;8.43;6.75;;;23.10;86.50;;;;;;5074701;28;20407;-72
2022/08/15 00:21:10;;;;;;;7.00;6.30;;;23.00;87.00;;;;;;5078682;28;20028;-72
2022/08/15 00:23:40;;;;;;;7.20;6.50;;;22.90;87.40;;;;;;5078355;28;20034;-72
2022/08/15 00:26:06;;;;;;;6.75;6.05;;;23.00;87.00;;;;;;5082216;28;20024;-73
2022/08/15 00:28:32;;;;;;;7.43;6.82;;;22.90;87.10;;;;;;5086430;28;20074;-72
2022/08/15 00:30:58;;;;;;;7.20;6.50;;;22.90;87.30;;;;;;5082173;28;20021;-72
2022/08/15 00:33:24;;;;;;;6.97;6.30;;;23.00;87.70;;;;;;5086651;28;20154;-73
2022/08/15 00:35:51;;;;;;;8.10;6.43;;;23.00;87.70;;;;;;5081351;28;20024;-72
2022/08/15 00:38:19;;;;;;;8.45;6.75;;;23.00;88.00;;;;;;5087794;28;20036;-72
2022/08/15 00:43:37;;;;;;;9.40;6.85;;;22.90;88.10;;;;;;5083400;28;20031;-73
2022/08/15 00:46:09;;;;;;;7.35;6.65;;;23.00;87.90;;;;;;5086693;28;20115;-72
2022/08/15 00:48:41;;;;;;;8.95;7.07;;;23.00;87.90;;;;;;5076941;28;20055;-72
2022/08/15 00:51:09;;;;;;;7.93;7.13;;;23.00;87.90;;;;;;5082050;28;20054;-73
2022/08/15 00:58:46;;;;;;;7.53;6.82;;;23.00;88.30;;;;;;4812169;22;9999654;-72
2022/08/15 01:01:15;;;;;;;8.30;6.57;;;23.00;89.00;;;;;;5005973;28;20048;-72
2022/08/15 01:03:44;;;;;;;9.23;6.50;;;22.90;89.20;;;;;;5009278;28;20026;-72
2022/08/15 01:06:10;;;;;;;8.93;6.70;;;22.90;89.60;;;;;;5019725;28;20036;-72
2022/08/15 01:08:41;;;;;;;7.88;7.07;;;22.90;89.00;;;;;;5014806;28;20424;-71
2022/08/15 01:11:24;;;;;;;7.28;6.50;;;22.90;89.80;;;;;;5007954;28;20059;-72
2022/08/15 01:13:51;;;;;;;8.98;6.90;;;22.80;88.80;;;;;;5017898;28;20060;-72
2022/08/15 01:16:18;;;;;;;8.43;7.20;;;22.80;88.80;;;;;;5011340;28;20534;-71
2022/08/15 01:18:45;;;;;;;8.70;6.80;;;22.80;89.50;;;;;;5014196;28;20575;-71
2022/08/15 01:21:20;;;;;;;7.70;6.95;;;22.80;88.70;;;;;;5020371;28;20095;-71
2022/08/15 01:24:13;;;;;;;7.63;6.43;;;22.80;88.50;;;;;;5009804;28;20030;-72
2022/08/15 01:26:40;;;;;;;9.18;7.07;;;22.80;88.30;;;;;;5003812;28;20091;-72
2022/08/15 01:29:06;;;;;;;8.00;6.55;;;22.80;88.30;;;;;;5010228;28;20021;-72
2022/08/15 01:31:32;;;;;;;9.02;7.00;;;22.80;88.20;;;;;;5008459;28;20026;-71
2022/08/15 01:34:00;;;;;;;7.65;6.95;;;22.80;88.30;;;;;;5017258;28;20496;-71
2022/08/15 01:36:29;;;;;;;9.00;6.75;;;22.80;88.60;;;;;;5014101;28;20333;-72
2022/08/15 01:39:08;;;;;;;9.63;6.88;;;22.80;88.60;;;;;;5017549;28;20497;-72
2022/08/15 01:41:53;;;;;;;7.50;6.80;;;22.70;89.00;;;;;;5012579;28;20029;-71
2022/08/15 01:44:21;;;;;;;7.70;6.63;;;22.70;89.20;;;;;;5011222;28;20481;-71
2022/08/15 01:47:02;;;;;;;13.10;6.75;;;22.60;89.60;;;;;;5015648;28;20052;-71
2022/08/15 01:50:07;;;;;;;7.35;6.55;;;22.60;89.90;;;;;;5019285;28;20037;-71
2022/08/15 01:52:53;;;;;;;11.85;7.07;;;22.50;89.90;;;;;;5009794;28;20037;-71
2022/08/15 01:55:26;;;;;;;7.80;7.00;;;22.60;90.00;;;;;;5015253;28;20079;-72
2022/08/15 01:57:51;;;;;;;9.40;7.05;;;22.50;90.00;;;;;;5015217;28;20128;-72
2022/08/15 02:00:18;;;;;;;9.85;7.00;;;22.50;90.20;;;;;;5020299;28;20168;-71
2022/08/15 02:02:46;;;;;;;10.43;7.20;;;22.40;90.20;;;;;;5018885;28;21719;-71
2022/08/15 02:05:12;;;;;;;9.93;7.05;;;22.40;90.30;;;;;;5014470;28;20030;-71
2022/08/15 02:07:38;;;;;;;7.22;6.53;;;22.40;90.30;;;;;;5015391;28;20036;-71
2022/08/15 02:10:06;;;;;;;9.90;7.00;;;22.40;90.30;;;;;;5017720;28;20026;-71
2022/08/15 02:12:36;;;;;;;8.98;7.50;;;22.40;90.40;;;;;;5018676;28;20022;-71
2022/08/15 02:15:09;;;;;;;8.15;7.35;;;22.40;90.50;;;;;;5018362;28;20484;-71
2022/08/15 02:17:35;;;;;;;8.45;7.57;;;22.40;90.50;;;;;;5025273;28;20273;-71
2022/08/15 02:20:01;;;;;;;10.98;7.38;;;22.30;90.50;;;;;;5025349;28;20056;-71
2022/08/15 02:22:27;;;;;;;8.73;7.35;;;22.30;90.80;;;;;;5015728;28;20148;-71
2022/08/15 02:24:55;;;;;;;9.52;8.50;;;22.30;91.20;;;;;;5017315;28;20496;-71
2022/08/15 02:27:20;;;;;;;9.90;7.90;;;22.10;94.00;;;;;;5023659;28;20030;-71
2022/08/15 02:29:46;;;;;;;9.90;7.88;;;22.00;95.50;;;;;;5029825;28;20489;-71
2022/08/15 02:32:15;;;;;;;8.07;7.28;;;21.80;96.80;;;;;;5018222;28;20030;-71
2022/08/15 02:34:44;;;;;;;7.60;6.90;;;21.60;97.80;;;;;;5011814;28;20508;-71
2022/08/15 02:37:11;;;;;;;7.28;6.57;;;21.50;98.80;;;;;;5007030;28;20046;-72
2022/08/15 02:39:37;;;;;;;7.80;7.07;;;;;;;;;;5019517;28;20480;-72
2022/08/15 02:42:03;;;;;;;10.05;7.55;;;21.40;97.50;;;;;;5024125;28;20049;-72
2022/08/15 02:44:30;;;;;;;7.97;7.22;;;21.40;97.40;;;;;;5018425;28;20026;-72
2022/08/15 02:46:56;;;;;;;8.43;7.63;;;21.30;97.60;;;;;;5016643;28;20033;-72
2022/08/15 02:49:23;;;;;;;10.60;7.93;;;21.30;98.60;;;;;;5023024;28;20397;-72
2022/08/15 02:51:49;;;;;;;9.48;8.32;;;21.30;99.90;;;;;;5019284;28;20341;-72
2022/08/15 02:54:17;;;;;;;9.30;8.30;;;21.30;99.90;;;;;;5016351;28;20038;-72
2022/08/15 02:56:44;;;;;;;9.68;8.68;;;21.20;99.90;;;;;;5018333;28;20031;-72
2022/08/15 02:59:10;;;;;;;9.02;8.13;;;21.10;99.90;;;;;;5024907;28;20436;-72
2022/08/15 03:01:38;;;;;;;9.00;8.10;;;21.00;99.90;;;;;;5025704;28;20045;-71
2022/08/15 03:04:09;;;;;;;10.05;8.20;;;20.80;99.90;;;;;;5016396;28;20099;-72
2022/08/15 03:06:36;;;;;;;9.88;8.00;;;20.70;99.90;;;;;;5018558;28;20030;-72
2022/08/15 03:09:07;;;;;;;9.38;8.35;;;20.70;99.90;;;;;;5026232;28;20108;-72
2022/08/15 03:11:38;;;;;;;12.00;8.05;;;20.70;99.90;;;;;;5023665;28;20029;-71
2022/08/15 03:14:07;;;;;;;9.40;7.97;;;20.80;99.90;;;;;;5012126;28;20648;-71
2022/08/15 03:16:35;;;;;;;8.77;7.80;;;20.80;99.90;;;;;;5026307;28;20037;-72
2022/08/15 03:19:01;;;;;;;8.65;7.85;;;20.90;99.90;;;;;;5022908;28;20026;-71
2022/08/15 03:21:27;;;;;;;10.38;7.97;;;20.90;99.90;;;;;;5019782;28;20033;-72
2022/08/15 03:23:53;;;;;;;8.98;8.07;;;21.00;99.90;;;;;;5018711;28;20026;-72
2022/08/15 03:26:21;;;;;;;9.13;8.23;;;21.00;99.90;;;;;;5010653;28;20022;-72
2022/08/15 03:28:47;;;;;;;13.18;8.77;;;21.10;99.90;;;;;;5024055;28;20454;-71
2022/08/15 03:31:13;;;;;;;8.43;7.53;;;21.20;99.90;;;;;;5017194;28;20117;-72
2022/08/15 03:33:41;;;;;;;8.48;7.68;;;21.30;99.90;;;;;;5023057;28;20036;-72
2022/08/15 03:36:08;;;;;;;8.77;7.88;;;21.30;99.90;;;;;;5011114;28;20029;-71
2022/08/15 03:38:34;;;;;;;10.80;8.27;;;21.30;99.90;;;;;;5020245;28;20091;-72
2022/08/15 03:41:00;;;;;;;9.27;8.02;;;21.20;99.90;;;;;;5017168;28;20061;-71
2022/08/15 03:43:29;;;;;;;8.80;8.02;;;21.00;99.90;;;;;;5015327;28;20080;-72
2022/08/15 03:46:00;;;;;;;8.93;8.23;;;20.90;99.90;;;;;;5017862;28;20025;-72
2022/08/15 03:48:36;;;;;;;9.30;8.40;;;20.80;99.90;;;;;;5013084;28;20504;-72
2022/08/15 03:51:03;;;;;;;8.60;7.80;;;20.80;99.90;;;;;;5014719;28;20033;-72
2022/08/15 03:53:33;;;;;;;8.73;7.93;;;20.60;99.90;;;;;;5017462;28;20041;-71
2022/08/15 03:56:00;;;;;;;8.57;7.72;;;20.60;99.90;;;;;;5015215;28;20536;-72
2022/08/15 03:58:27;;;;;;;10.85;8.73;;;20.50;99.90;;;;;;5012520;28;20514;-72
2022/08/15 04:00:53;;;;;;;11.60;9.27;;;20.50;99.90;;;;;;5014944;28;20033;-72
2022/08/15 04:03:23;;;;;;;10.40;9.40;;;20.50;99.90;;;;;;5013312;28;20037;-72
2022/08/15 04:05:58;;;;;;;9.80;8.90;;;20.40;99.90;;;;;;5014402;28;20028;-73
2022/08/15 04:08:30;;;;;;;9.90;8.95;;;20.30;99.90;;;;;;5018191;28;20117;-73
2022/08/15 04:10:57;;;;;;;9.65;8.60;;;20.20;99.90;;;;;;5009843;28;20611;-73
2022/08/15 04:13:24;;;;;;;10.75;9.48;;;20.20;99.90;;;;;;5016805;28;20492;-73
2022/08/15 04:15:51;;;;;;;10.15;8.88;;;20.20;99.90;;;;;;5012097;28;20060;-72
2022/08/15 04:18:16;;;;;;;9.82;8.93;;;20.30;99.90;;;;;;5019300;28;20568;-72
2022/08/15 04:20:43;;;;;;;9.48;8.57;;;20.30;99.90;;;;;;5010411;28;20037;-72
2022/08/15 04:23:10;;;;;;;9.95;8.95;;;20.40;99.90;;;;;;5011635;28;20650;-73
2022/08/15 04:25:39;;;;;;;9.73;8.82;;;20.50;99.90;;;;;;5012768;28;20030;-72
2022/08/15 04:28:07;;;;;;;9.13;8.30;;;20.40;99.90;;;;;;5010110;28;20490;-72
2022/08/15 04:30:36;;;;;;;9.38;8.48;;;20.40;99.90;;;;;;5020117;28;20037;-72
2022/08/15 04:33:23;;;;;;;9.93;8.93;;;20.40;99.90;;;;;;5016461;28;20576;-72
2022/08/15 04:35:55;;;;;;;9.35;8.40;;;20.40;99.90;;;;;;5015026;28;20137;-72
2022/08/15 04:38:21;;;;;;;9.57;8.68;;;20.40;99.90;;;;;;5015016;28;20045;-72
2022/08/15 04:40:48;;;;;;;10.05;9.05;;;20.50;99.90;;;;;;5013459;28;20029;-72
2022/08/15 04:43:16;;;;;;;10.02;8.77;;;20.40;99.90;;;;;;5021559;28;20033;-72
2022/08/15 04:45:42;;;;;;;11.82;9.68;;;20.50;99.90;;;;;;5021777;28;20024;-72
2022/08/15 04:48:09;;;;;;;10.55;9.45;;;20.50;99.90;;;;;;5022225;28;20029;-72
2022/08/15 04:50:37;;;;;;;10.40;9.40;;;20.50;99.90;;;;;;5022052;28;20022;-72
2022/08/15 04:53:05;;;;;;;10.02;9.00;;;20.50;99.90;;;;;;5021071;28;20397;-72
2022/08/15 04:55:31;;;;;;;10.25;9.13;;;20.50;99.90;;;;;;5012453;28;20221;-72
2022/08/15 04:57:58;;;;;;;10.40;9.10;;;20.50;99.90;;;;;;5021055;28;20046;-72
2022/08/15 05:00:27;;;;;;;10.23;9.32;;;20.50;99.90;;;;;;5024161;28;20025;-72
2022/08/15 05:03:02;;;;;;;10.32;9.32;;;20.60;99.90;;;;;;5016354;28;20168;-72
2022/08/15 05:05:28;;;;;;;10.20;9.18;;;20.60;99.90;;;;;;5018672;28;20084;-72
2022/08/15 05:07:54;;;;;;;10.68;9.40;;;20.60;99.90;;;;;;5023826;28;20025;-73
2022/08/15 05:10:20;;;;;;;10.05;9.05;;;20.70;99.90;;;;;;5020344;28;20038;-73
2022/08/15 05:12:46;;;;;;;11.02;9.88;;;20.70;99.90;;;;;;5006912;28;20025;-72
2022/08/15 05:15:15;;;;;;;14.45;10.65;;;20.70;99.90;;;;;;5020835;28;20040;-72
2022/08/15 05:17:41;;;;;;;12.02;10.30;;;20.60;99.90;;;;;;5020420;28;20210;-72
2022/08/15 05:20:08;;;;;;;12.23;10.52;;;20.50;99.90;;;;;;5025981;28;20083;-72
2022/08/15 05:22:34;;;;;;;12.77;10.55;;;20.50;99.90;;;;;;5022278;28;20454;-72
2022/08/15 05:24:59;;;;;;;10.65;9.55;;;20.50;99.90;;;;;;5017706;28;20040;-72
2022/08/15 05:27:25;;;;;;;12.18;10.20;;;20.50;99.90;;;;;;5009555;28;20626;-72
2022/08/15 05:29:51;;;;;;;11.82;10.00;;;20.40;99.90;;;;;;5012664;28;20242;-72
2022/08/15 05:32:18;;;;;;;10.23;9.23;;;20.40;99.90;;;;;;5013391;28;20105;-73
2022/08/15 05:34:46;;;;;;;11.80;9.48;;;20.40;99.90;;;;;;5012087;28;20040;-72
2022/08/15 05:37:12;;;;;;;10.35;9.30;;;20.40;99.90;;;;;;5013136;28;20121;-72
2022/08/15 05:39:39;;;;;;;11.50;9.60;;;20.40;99.90;;;;;;5017513;28;20493;-72
2022/08/15 05:42:28;;;;;;;10.90;9.65;;;20.50;99.90;;;;;;5020909;28;20124;-72
2022/08/15 05:45:15;;;;;;;12.13;9.63;;;20.60;99.90;;;;;;5025209;28;20038;-71
2022/08/15 05:47:51;;;;;;;12.48;9.77;;;20.70;99.90;;;;;;5010227;28;20493;-72
2022/08/15 05:50:30;;;;;;;11.25;9.90;;;20.80;99.90;;;;;;5021748;28;20021;-71
2022/08/15 05:53:21;;;;;;;11.95;10.23;;;20.90;99.90;;;;;;5030823;28;20014;-72
2022/08/15 05:55:59;;;;;;;10.68;9.57;;;20.90;99.90;;;;;;5019593;28;20029;-72
2022/08/15 05:58:50;;;;;;;11.68;9.90;;;21.00;99.90;;;;;;5018319;28;20598;-71
2022/08/15 06:01:25;;;;;;;13.95;10.75;;;20.90;99.90;;;;;;5022752;28;20163;-72
2022/08/15 06:04:01;;;;;;;12.63;11.30;;;20.90;99.90;;;;;;5016317;28;20046;-72
2022/08/15 06:06:30;;;;;;;12.52;10.60;;;20.90;99.90;;;;;;5021567;28;20021;-71
2022/08/15 06:09:06;;;;;;;12.07;10.10;;;20.80;99.90;;;;;;5016743;28;20033;-71
2022/08/15 06:11:40;;;;;;;11.55;10.35;;;20.90;99.90;;;;;;5013996;28;20032;-72
2022/08/15 06:14:33;;;;;;;12.48;10.60;;;20.90;99.90;;;;;;5015448;28;20049;-73
2022/08/15 06:17:31;;;;;;;11.07;9.70;;;20.90;99.90;;;;;;5018620;28;20079;-72
2022/08/15 06:20:03;;;;;;;11.90;10.20;;;21.00;99.90;;;;;;4999992;28;20038;-72
2022/08/15 06:23:06;;;;;;;11.35;10.18;;;21.10;99.90;;;;;;5015528;28;20092;-72
2022/08/15 06:25:54;;;;;;;12.23;10.70;;;21.20;99.90;;;;;;5022031;28;20030;-71
2022/08/15 06:28:44;;;;;;;12.38;10.35;;;21.30;99.90;;;;;;5021125;28;20436;-72
2022/08/15 06:31:32;;;;;;;11.05;9.95;;;21.40;99.90;;;;;;5014731;28;20429;-72
2022/08/15 06:34:39;;;;;;;12.00;10.10;;;21.50;99.90;;;;;;5021045;28;20021;-72
2022/08/15 06:37:25;;;;;;;11.43;10.23;;;21.70;99.90;;;;;;5019081;28;20108;-72
2022/08/15 06:40:09;;;;;;;14.32;10.88;;;21.80;99.90;;;;;;5019136;28;20115;-72
2022/08/15 06:42:38;;;;;;;11.68;10.48;;;21.80;99.90;;;;;;5018611;28;20033;-71
2022/08/15 06:45:26;;;;;;;11.65;10.45;;;21.80;99.90;;;;;;5022252;28;20032;-73
2022/08/15 06:48:15;;;;;;;13.27;10.30;;;21.70;99.90;;;;;;5020715;28;20034;-72
2022/08/15 06:50:49;;;;;;;12.65;10.52;;;21.70;99.90;;;;;;5019942;28;20022;-72
2022/08/15 06:53:22;;;;;;;14.75;11.25;;;21.80;99.90;;;;;;5019736;28;20560;-70
2022/08/15 06:56:02;;;;;;;14.02;11.80;;;21.80;99.90;;;;;;5020467;28;20041;-72
2022/08/15 06:59:00;;;;;;;17.73;12.38;;;21.70;99.90;;;;;;5021569;28;20049;-72
2022/08/15 07:01:47;;;;;;;13.48;10.90;;;21.70;99.90;;;;;;5017649;28;20029;-71
2022/08/15 07:04:20;;;;;;;14.10;11.30;;;21.70;99.90;;;;;;5020368;28;20041;-72
2022/08/15 07:07:06;;;;;;;13.15;10.95;;;21.70;99.90;;;;;;5017014;28;20018;-72
2022/08/15 07:09:54;;;;;;;14.68;11.10;;;21.80;99.90;;;;;;5010074;28;20512;-71
2022/08/15 07:12:30;;;;;;;11.00;9.98;;;21.80;99.90;;;;;;5022939;28;20114;-71
2022/08/15 07:15:03;;;;;;;13.55;10.10;;;22.00;99.90;;;;;;5017817;28;20044;-72
2022/08/15 07:17:40;;;;;;;13.48;10.68;;;22.20;99.90;;;;;;5024264;28;20058;-74
2022/08/15 07:20:07;;;;;;;18.05;10.25;;;22.40;99.90;;;;;;5014659;28;20036;-72
2022/08/15 07:22:34;;;;;;;13.60;9.88;;;22.70;99.90;;;;;;5010016;28;20432;-72
2022/08/15 07:25:00;;;;;;;11.20;8.70;;;22.80;99.90;;;;;;5016106;28;20026;-72
2022/08/15 07:27:33;;;;;;;11.75;9.23;;;22.90;99.90;;;;;;5021157;28;20636;-72
2022/08/15 07:30:07;;;;;;;15.23;9.35;;;23.00;99.90;;;;;;5014436;28;20130;-74
2022/08/15 07:32:52;;;;;;;13.88;10.15;;;23.00;99.90;;;;;;5025465;28;20029;-73
2022/08/15 07:35:26;;;;;;;10.07;8.80;;;23.10;99.90;;;;;;5014817;28;20026;-73
2022/08/15 07:38:09;;;;;;;13.82;9.52;;;23.20;99.90;;;;;;5021243;28;20021;-73
2022/08/15 07:40:41;;;;;;;11.75;8.75;;;23.30;99.90;;;;;;5009438;28;20030;-73
2022/08/15 07:43:28;;;;;;;17.13;9.25;;;23.40;99.90;;;;;;5021177;28;20041;-74
2022/08/15 07:46:21;;;;;;;13.65;8.82;;;23.60;99.90;;;;;;5024449;28;20412;-74
2022/08/15 07:49:28;;;;;;;11.38;8.13;;;23.80;99.90;;;;;;5016214;28;20112;-73
2022/08/15 07:52:20;;;;;;;9.68;7.53;;;23.90;99.90;;;;;;5037163;28;20029;-73
2022/08/15 07:54:49;;;;;;;7.50;6.80;;;24.00;99.90;;;;;;5004833;28;20105;-74
2022/08/15 07:57:34;;;;;;;9.25;7.07;;;24.00;99.90;;;;;;5007424;28;20106;-73
2022/08/15 08:00:21;;;;;;;8.35;7.55;;;24.00;99.90;;;;;;5021334;28;20499;-73
2022/08/15 08:02:55;;;;;;;8.82;7.97;;;24.10;99.90;;;;;;5008076;28;20036;-72
2022/08/15 08:05:27;;;;;;;14.85;8.52;;;24.20;99.90;;;;;;5021186;28;20022;-73
2022/08/15 08:07:55;;;;;;;11.23;7.50;;;24.30;99.90;;;;;;5027204;28;20037;-73
2022/08/15 08:10:29;;;;;;;11.38;8.15;;;24.40;99.90;;;;;;5027412;28;20104;-73
2022/08/15 08:13:29;;;;;;;10.00;8.00;;;24.70;99.90;;;;;;5023506;28;20022;-73
2022/08/15 08:16:09;;;;;;;8.73;7.78;;;24.80;99.90;;;;;;5021500;28;20084;-73
2022/08/15 08:19:22;;;;;;;10.43;8.00;;;25.00;99.90;;;;;;5013981;28;20113;-73
2022/08/15 08:22:18;;;;;;;11.20;7.28;;;25.10;99.90;;;;;;4992229;28;20494;-73
2022/08/15 08:25:02;;;;;;;12.82;6.50;;;25.10;99.90;;;;;;5026398;28;20817;-73
2022/08/15 08:27:57;;;;;;;9.40;6.45;;;25.10;99.90;;;;;;5026828;28;20104;-73
2022/08/15 08:30:26;;;;;;;7.10;6.40;;;25.20;99.90;;;;;;5007707;28;20025;-73
2022/08/15 08:33:10;;;;;;;8.10;6.55;;;25.30;99.90;;;;;;5004599;28;20181;-73
2022/08/15 08:35:47;;;;;;;9.45;6.63;;;25.30;99.90;;;;;;5012998;28;20025;-73
2022/08/15 08:38:30;;;;;;;10.65;6.95;;;25.40;99.90;;;;;;5018224;28;20341;-73
2022/08/15 08:41:29;;;;;;;7.45;6.70;;;25.40;99.90;;;;;;5024420;28;20060;-74
2022/08/15 08:44:06;;;;;;;7.80;7.05;;;25.50;99.90;;;;;;5026067;28;20061;-73
2022/08/15 08:46:54;;;;;;;6.95;6.25;;;25.60;99.90;;;;;;5011252;28;20108;-74
2022/08/15 08:49:30;;;;;;;7.43;6.57;;;25.60;99.90;;;;;;5008786;28;20285;-73
2022/08/15 08:52:07;;;;;;;7.82;6.43;;;25.60;99.90;;;;;;5007581;28;20357;-74
2022/08/15 08:54:58;;;;;;;11.13;6.13;;;25.60;99.20;;;;;;5012299;28;20064;-73
2022/08/15 08:57:29;;;;;;;8.13;6.32;;;25.50;99.20;;;;;;5006591;28;20054;-74
2022/08/15 09:00:04;;;;;;;8.52;6.00;;;25.50;98.60;;;;;;5006459;28;20038;-74
2022/08/15 09:02:36;;;;;;;8.85;6.10;;;25.40;98.20;;;;;;5005665;28;20022;-74
2022/08/15 09:05:12;;;;;;;6.30;5.45;;;25.40;98.10;;;;;;5013821;28;20041;-74
2022/08/15 09:07:46;;;;;;;8.05;5.55;;;25.30;97.90;;;;;;5020629;28;20058;-72
2022/08/15 09:10:20;;;;;;;7.65;5.47;;;25.10;97.70;;;;;;5015719;28;20030;-74
2022/08/15 09:15:32;;;;;;;6.10;4.53;;;25.10;98.70;;;;;;5024794;28;20500;-73
2022/08/15 09:18:05;;;;;;;5.72;4.93;;;25.00;97.60;;;;;;5025764;28;20314;-73
2022/08/15 09:20:34;;;;;;;13.95;8.82;;;24.90;97.70;;;;;;5026205;28;20104;-73
2022/08/15 09:23:03;;;;;;;6.85;5.40;;;24.80;97.60;;;;;;5013180;28;20041;-73
2022/08/15 09:25:32;;;;;;;7.47;5.82;;;24.60;97.90;;;;;;5012766;28;20412;-72
2022/08/15 09:28:11;;;;;;;7.35;5.72;;;24.40;98.90;;;;;;5016701;28;20493;-73
2022/08/15 09:30:39;;;;;;;9.93;6.93;;;24.20;99.90;;;;;;5019985;28;20026;-74
2022/08/15 09:33:29;;;;;;;12.55;7.00;;;24.00;99.90;;;;;;5006466;28;20076;-73
2022/08/15 09:36:20;;;;;;;10.90;6.43;;;23.80;99.90;;;;;;5007162;28;20030;-74
2022/08/15 09:39:24;;;;;;;8.27;7.20;;;23.50;99.90;;;;;;5019862;28;20033;-74
2022/08/15 09:42:08;;;;;;;11.75;6.90;;;23.20;99.90;;;;;;5005855;28;20108;-73
2022/08/15 09:44:37;;;;;;;10.15;6.72;;;23.00;99.90;;;;;;5003959;28;20087;-73
2022/08/15 09:47:35;;;;;;;10.60;7.20;;;22.80;99.90;;;;;;5017448;28;20473;-75
2022/08/15 09:50:30;;;;;;;11.82;7.60;;;22.70;99.90;;;;;;4987794;28;20115;-76
2022/08/15 09:53:18;;;;;;;12.57;8.40;;;22.50;99.90;;;;;;4986521;28;20422;-76
2022/08/15 09:55:48;;;;;;;10.98;8.93;;;22.30;99.90;;;;;;5012601;28;20018;-76
2022/08/15 09:58:23;;;;;;;11.68;7.85;;;22.10;99.90;;;;;;5006329;28;20614;-76
2022/08/15 10:01:08;;;;;;;9.02;7.90;;;22.00;99.90;;;;;;5011849;28;20033;-77
2022/08/15 10:03:43;;;;;;;10.52;8.77;;;21.90;99.90;;;;;;5015034;28;20113;-76
2022/08/15 10:06:14;;;;;;;9.27;7.85;;;21.90;99.90;;;;;;5008730;28;20381;-77
2022/08/15 10:08:52;;;;;;;11.65;8.13;;;21.80;99.90;;;;;;5012923;28;20439;-77
2022/08/15 10:11:24;;;;;;;10.30;8.40;;;21.90;99.90;;;;;;5019380;28;20022;-77
2022/08/15 10:14:05;;;;;;;10.55;8.23;;;21.90;99.90;;;;;;5007555;28;20036;-77
2022/08/15 10:16:36;;;;;;;8.45;7.55;;;22.00;99.90;;;;;;5006008;28;20054;-76
2022/08/15 10:19:09;;;;;;;8.52;7.65;;;22.10;99.90;;;;;;5023019;28;20029;-77
2022/08/15 10:21:42;;;;;;;10.20;7.40;;;22.10;99.90;;;;;;5024859;28;20092;-76
2022/08/15 10:24:30;;;;;;;10.75;7.90;;;22.20;99.90;;;;;;5021008;28;20021;-76
2022/08/15 10:27:07;;;;;;;11.45;9.10;;;22.30;99.90;;;;;;5015530;28;20033;-75
2022/08/15 10:29:35;;;;;;;12.85;8.85;;;22.30;99.90;;;;;;5015810;28;20022;-75
2022/08/15 10:32:02;;;;;;;8.82;7.93;;;22.30;99.90;;;;;;5021447;28;20029;-76
2022/08/15 10:34:41;;;;;;;10.43;8.05;;;22.30;99.90;;;;;;4331759;28;10001458;-73
2022/08/15 10:37:23;;;;;;;9.32;8.38;;;22.40;99.90;;;;;;5031908;28;20033;-72
2022/08/15 10:40:11;;;;;;;8.07;7.28;;;22.40;99.90;;;;;;5043173;28;20474;-73
2022/08/15 10:43:02;;;;;;;8.80;7.72;;;22.60;99.90;;;;;;5025697;28;20017;-72
2022/08/15 10:45:46;;;;;;;9.50;7.90;;;22.70;99.90;;;;;;5032440;28;20525;-71
2022/08/15 10:48:24;;;;;;;9.73;8.13;;;22.70;99.90;;;;;;5035320;28;20033;-72
2022/08/15 10:51:16;;;;;;;10.13;8.32;;;22.80;99.90;;;;;;5036771;28;20048;-72
2022/08/15 10:53:57;;;;;;;10.57;9.38;;;22.90;99.90;;;;;;5028117;28;20075;-71
2022/08/15 10:56:26;;;;;;;12.02;10.48;;;22.90;99.90;;;;;;5031200;28;20045;-72
2022/08/15 10:59:02;;;;;;;11.40;10.20;;;23.00;99.90;;;;;;5035693;28;20816;-71
2022/08/15 11:01:32;;;;;;;12.50;9.88;;;23.10;99.90;;;;;;5039798;28;20180;-71
2022/08/15 11:04:09;;;;;;;10.38;9.25;;;23.10;99.90;;;;;;5032350;28;20033;-72
2022/08/15 11:06:48;;;;;;;12.50;9.63;;;23.20;99.90;;;;;;5022056;28;20034;-70
2022/08/15 11:09:17;;;;;;;17.67;10.15;;;23.30;99.90;;;;;;5014242;28;20028;-72
2022/08/15 11:11:55;;;;;;;13.18;10.27;;;23.30;99.90;;;;;;5016352;28;20029;-71
2022/08/15 11:14:28;;;;;;;14.27;9.10;;;23.40;99.90;;;;;;5020043;28;20026;-71
2022/08/15 11:16:56;;;;;;;11.40;10.20;;;23.40;99.90;;;;;;5017216;28;20754;-71
2022/08/15 11:19:32;;;;;;;10.50;7.65;;;23.40;99.90;;;;;;5024939;28;20696;-72
2022/08/15 11:22:03;;;;;;;9.25;8.20;;;23.40;99.90;;;;;;5012711;28;20025;-71
2022/08/15 11:24:34;;;;;;;8.65;7.80;;;23.50;99.90;;;;;;5007070;28;20048;-71
2022/08/15 11:27:09;;;;;;;7.93;6.97;;;23.60;99.90;;;;;;5015150;28;20038;-71
2022/08/15 11:29:36;;;;;;;7.55;6.85;;;23.60;99.90;;;;;;5009846;28;20036;-71
2022/08/15 11:32:02;;;;;;;7.60;6.90;;;23.70;99.90;;;;;;5019623;28;20508;-71
2022/08/15 11:34:35;;;;;;;7.15;6.45;;;23.80;99.90;;;;;;5014985;28;20022;-71
2022/08/15 11:37:15;;;;;;;7.13;6.43;;;23.80;99.90;;;;;;5020139;28;20029;-72
2022/08/15 11:39:43;;;;;;;6.85;5.65;;;23.90;99.90;;;;;;5013945;28;20037;-71
2022/08/15 11:42:17;;;;;;;7.97;6.25;;;24.00;99.90;;;;;;5013654;28;20081;-70
2022/08/15 11:45:09;;;;;;;8.57;5.97;;;24.10;99.90;;;;;;5019051;28;20116;-70
2022/08/15 11:47:42;;;;;;;7.05;6.35;;;24.20;99.90;;;;;;5021399;28;20036;-71
2022/08/15 11:50:35;;;;;;;8.90;6.80;;;24.30;99.90;;;;;;5023540;28;20040;-71
2022/08/15 11:53:02;;;;;;;;;;;24.40;99.90;;;;;;5017675;28;20037;-71
2022/08/15 11:55:31;;;;;;;8.65;7.45;;;24.50;99.90;;;;;;5017067;28;20432;-71
2022/08/15 11:58:12;;;;;;;8.20;7.25;;;24.60;99.90;;;;;;5008616;28;20690;-71
2022/08/15 12:00:42;;;;;;;9.57;8.57;;;24.80;99.90;;;;;;5014301;28;20029;-70
2022/08/15 12:03:22;;;;;;;8.77;7.97;;;24.80;99.90;;;;;;5015501;28;20025;-70
2022/08/15 12:05:51;;;;;;;8.75;7.80;;;24.90;99.90;;;;;;5020570;28;20025;-71
2022/08/15 12:08:29;;;;;;;10.10;7.95;;;24.90;99.90;;;;;;5015508;28;20122;-71
2022/08/15 12:11:14;;;;;;;13.82;8.95;;;25.00;99.90;;;;;;5016822;28;20469;-70
2022/08/15 12:13:57;;;;;;;12.02;8.80;;;25.10;99.90;;;;;;5016298;28;20045;-71
2022/08/15 12:16:25;;;;;;;9.45;8.45;;;25.10;99.90;;;;;;5016963;28;20064;-71
2022/08/15 12:18:52;;;;;;;8.80;8.00;;;25.20;99.90;;;;;;5010407;28;20045;-71
2022/08/15 12:21:17;;;;;;;9.13;8.23;;;25.30;99.90;;;;;;5008182;28;20041;-71
2022/08/15 12:23:52;;;;;;;9.50;8.57;;;25.50;99.90;;;;;;5020843;28;20689;-72
2022/08/15 12:26:19;;;;;;;10.52;8.55;;;25.50;99.90;;;;;;5019801;28;20103;-71
2022/08/15 12:28:46;;;;;;;12.15;9.02;;;25.50;99.90;;;;;;5011669;28;20092;-71
2022/08/15 12:31:20;;;;;;;9.60;8.60;;;25.50;99.90;;;;;;5010521;28;20040;-71
2022/08/15 12:33:46;;;;;;;9.20;8.30;;;25.60;99.90;;;;;;5007507;28;20042;-71
2022/08/15 12:36:12;;;;;;;10.52;8.80;;;25.60;99.90;;;;;;5022775;28;20076;-72
2022/08/15 12:38:39;;;;;;;9.30;8.40;;;25.60;99.90;;;;;;5012125;28;20124;-72
2022/08/15 12:41:06;;;;;;;13.55;9.13;;;25.60;99.90;;;;;;5013521;28;20040;-71
2022/08/15 12:43:34;;;;;;;10.18;8.10;;;25.60;99.90;;;;;;5015859;28;20037;-71
2022/08/15 12:45:59;;;;;;;9.82;7.82;;;25.70;99.90;;;;;;5012469;28;20477;-72
2022/08/15 12:48:28;;;;;;;9.60;7.72;;;25.80;99.90;;;;;;5017278;28;20159;-71
2022/08/15 12:50:54;;;;;;;9.93;8.90;;;26.00;99.90;;;;;;5020906;28;20496;-70
2022/08/15 12:53:20;;;;;;;9.55;7.45;;;26.30;99.90;;;;;;5018646;28;20025;-70
2022/08/15 12:55:48;;;;;;;7.88;6.93;;;26.60;99.90;;;;;;5009350;28;20099;-69
2022/08/15 12:58:18;;;;;;;9.35;6.35;;;27.00;99.90;;;;;;5011968;28;20114;-70
2022/08/15 13:00:52;;;;;;;6.03;5.53;;;27.40;99.90;;;;;;5013005;28;20275;-69
2022/08/15 13:03:23;;;;;;;6.70;6.03;;;27.70;99.90;;;;;;5016556;28;20076;-70
2022/08/15 13:05:55;;;;;;;8.05;5.30;;;27.80;99.60;;;;;;5018224;28;20049;-71
2022/08/15 13:08:21;;;;;;;6.20;4.75;;;27.90;98.80;;;;;;5015027;28;20030;-70
2022/08/15 13:10:47;;;;;;;6.57;4.78;;;28.00;96.00;;;;;;5016748;28;20036;-71
2022/08/15 13:13:13;;;;;;;6.80;4.93;;;28.00;95.10;;;;;;5012836;28;20040;-71
2022/08/15 13:15:38;;;;;;;4.75;4.35;;;28.00;94.60;;;;;;5008092;28;20026;-70
2022/08/15 13:18:04;;;;;;;4.50;4.10;;;28.00;94.10;;;;;;5018257;28;20523;-71
2022/08/15 13:25:59;;;;;;;6.15;4.88;;;28.30;93.50;;;;;;5019243;28;20064;-71
2022/08/15 13:28:25;;;;;;;6.03;5.43;;;28.30;92.90;;;;;;5013093;28;20074;-71
2022/08/15 13:30:51;;;;;;;7.05;6.07;;;28.30;92.90;;;;;;5015305;28;20036;-72